Thunder radar more information blitzortung!


Radar de pluja more information rain snow radar


Visita la nostra xarxa de llocs de meteo:

Template documentation
and downloads

And another site



No particular awareness of the weather is required.    There are no Weather-warnings

Pagina Historial Weather Underground text

Diari Resum Octubre 19, 2017 Unitats:  Tant    Imperial   Mètric
« Previous Dia
SegĂźent Dia »
Diari Setmana Mensual Anual Personalitzada
  Maxima: Minima: Media:
Temperatura: 60.8 °F /  16.0 °C 56.3 °F /  13.5 °C 58.8 °F /  14.9 °C
Punt de rosada: 59.5 °F /  15.3 °C 54.9 °F /  12.7 °C 57.6 °F /  14.2 °C
Humitat: 97 % 92 % 96 %
Wind Speed: 13.8 mph /  22.2 km/h - 3.4 mph /  5.4 km/h
RĂ fegues de vent: 13.8 mph /  22.2 km/h - -
Vent:- - ENE
Pression baro: 29.9 in /  1013.8 hPa 29.7 in /  1007.0 hPa -
Precipitacions: 2.06 in /  52.3 mm    
Historical Graphs
 
 
Dades de taula per Octubre 19, 2017
Temps Temperatura Punt de rosada Pression baro Vent Wind Speed RĂ fegues de vent Humitat Rainfall Rate (Hourly)
00:00 58.8 °F /  14.9 °C 57.4 °F /  14.1 °C 29.8 in /  1010.0 hPa Calm   2 mph /  3.2 km/h 95 % 0 in /  0.0 mm
00:04 58.3 °F /  14.6 °C 55.9 °F /  13.3 °C 29.9 in /  1011.7 hPa ENE 2.3 mph /  3.7 km/h 2.3 mph /  3.7 km/h 92 % 0 in /  0.0 mm
00:09 58.3 °F /  14.6 °C 55.9 °F /  13.3 °C 29.9 in /  1011.7 hPa NNE 3.5 mph /  5.6 km/h 3.5 mph /  5.6 km/h 92 % 0 in /  0.0 mm
00:10 58.8 °F /  14.9 °C 57.4 °F /  14.1 °C 29.8 in /  1010.0 hPa East 1 mph /  1.6 km/h 1 mph /  1.6 km/h 95 % 0.04 in /  1.0 mm
00:14 58.3 °F /  14.6 °C 55.9 °F /  13.3 °C 29.9 in /  1011.7 hPa NNE 4.6 mph /  7.4 km/h 4.6 mph /  7.4 km/h 92 % 0 in /  0.0 mm
00:20 58.8 °F /  14.9 °C 57.4 °F /  14.1 °C 29.8 in /  1010.0 hPa Calm     95 % 0.04 in /  1.0 mm
00:30 59 °F /  15.0 °C 57.6 °F /  14.2 °C 29.8 in /  1010.0 hPa NE 5 mph /  8.0 km/h 5 mph /  8.0 km/h 95 % 0 in /  0.0 mm
00:40 59 °F /  15.0 °C 57.6 °F /  14.2 °C 29.8 in /  1010.0 hPa NE 1 mph /  1.6 km/h 5 mph /  8.0 km/h 95 % 0 in /  0.0 mm
00:50 58.8 °F /  14.9 °C 57.4 °F /  14.1 °C 29.8 in /  1010.0 hPa NE 2 mph /  3.2 km/h 4 mph /  6.4 km/h 95 % 0 in /  0.0 mm
01:00 58.6 °F /  14.8 °C 57.2 °F /  14.0 °C 29.8 in /  1010.0 hPa NNE 1 mph /  1.6 km/h 2 mph /  3.2 km/h 95 % 0 in /  0.0 mm
01:10 58.5 °F /  14.7 °C 57 °F /  13.9 °C 29.8 in /  1010.0 hPa Calm     95 % 0 in /  0.0 mm
01:20 58.5 °F /  14.7 °C 57 °F /  13.9 °C 29.8 in /  1010.0 hPa Calm   3 mph /  4.8 km/h 95 % 0 in /  0.0 mm
01:30 58.5 °F /  14.7 °C 57 °F /  13.9 °C 29.8 in /  1009.0 hPa NE 3 mph /  4.8 km/h 3 mph /  4.8 km/h 95 % 0 in /  0.0 mm
01:40 58.1 °F /  14.5 °C 56.7 °F /  13.7 °C 29.8 in /  1009.0 hPa ENE 1 mph /  1.6 km/h 3 mph /  4.8 km/h 95 % 0.05 in /  1.3 mm
01:50 57.6 °F /  14.2 °C 55.8 °F /  13.2 °C 29.8 in /  1010.0 hPa NE 2 mph /  3.2 km/h 3 mph /  4.8 km/h 94 % 0.05 in /  1.3 mm
02:00 57.4 °F /  14.1 °C 55.8 °F /  13.2 °C 29.8 in /  1010.0 hPa NE 3 mph /  4.8 km/h 3 mph /  4.8 km/h 94 % 0.16 in /  4.1 mm
02:10 57 °F /  13.9 °C 55.2 °F /  12.9 °C 29.8 in /  1010.0 hPa Calm   2 mph /  3.2 km/h 94 % 0.2 in /  5.1 mm
02:20 56.7 °F /  13.7 °C 55 °F /  12.8 °C 29.8 in /  1010.0 hPa Calm     94 % 0.08 in /  2.0 mm
02:30 56.7 °F /  13.7 °C 55 °F /  12.8 °C 29.8 in /  1010.0 hPa NE 2 mph /  3.2 km/h 3 mph /  4.8 km/h 94 % 0.13 in /  3.3 mm
02:40 56.5 °F /  13.6 °C 55 °F /  12.8 °C 29.8 in /  1010.0 hPa NE 2 mph /  3.2 km/h 3 mph /  4.8 km/h 95 % 0.13 in /  3.3 mm
02:50 56.3 °F /  13.5 °C 54.9 °F /  12.7 °C 29.8 in /  1010.0 hPa ENE 1 mph /  1.6 km/h 3 mph /  4.8 km/h 95 % 0.12 in /  3.0 mm
03:00 56.3 °F /  13.5 °C 54.9 °F /  12.7 °C 29.8 in /  1009.0 hPa Calm     95 % 0.08 in /  2.0 mm
03:10 56.3 °F /  13.5 °C 54.9 °F /  12.7 °C 29.8 in /  1009.0 hPa ENE 3 mph /  4.8 km/h 3 mph /  4.8 km/h 95 % 0 in /  0.0 mm
03:20 56.3 °F /  13.5 °C 54.9 °F /  12.7 °C 29.8 in /  1010.0 hPa NE 3 mph /  4.8 km/h 4 mph /  6.4 km/h 95 % 0 in /  0.0 mm
03:30 56.3 °F /  13.5 °C 54.9 °F /  12.7 °C 29.8 in /  1010.0 hPa NNE 1 mph /  1.6 km/h 3 mph /  4.8 km/h 95 % 0 in /  0.0 mm
03:40 56.5 °F /  13.6 °C 55 °F /  12.8 °C 29.8 in /  1010.0 hPa Calm   1 mph /  1.6 km/h 95 % 0.04 in /  1.0 mm
03:50 56.5 °F /  13.6 °C 55 °F /  12.8 °C 29.8 in /  1009.0 hPa Calm   2 mph /  3.2 km/h 95 % 0.04 in /  1.0 mm
04:00 56.5 °F /  13.6 °C 55.4 °F /  13.0 °C 29.8 in /  1010.7 hPa Calm   3 mph /  4.8 km/h 96 % 0.04 in /  1.0 mm
04:10 56.8 °F /  13.8 °C 55.8 °F /  13.2 °C 29.8 in /  1010.7 hPa SE 3 mph /  4.8 km/h 4 mph /  6.4 km/h 96 % 0.17 in /  4.3 mm
04:20 56.8 °F /  13.8 °C 55.8 °F /  13.2 °C 29.8 in /  1010.7 hPa Calm   2 mph /  3.2 km/h 96 % 0.21 in /  5.3 mm
04:30 56.8 °F /  13.8 °C 55.8 °F /  13.2 °C 29.8 in /  1010.7 hPa ENE 1 mph /  1.6 km/h   96 % 0.08 in /  2.0 mm
04:40 56.8 °F /  13.8 °C 55.8 °F /  13.2 °C 29.8 in /  1010.7 hPa Calm     96 % 0.09 in /  2.3 mm
04:50 56.8 °F /  13.8 °C 55.8 °F /  13.2 °C 29.9 in /  1011.7 hPa Calm   1 mph /  1.6 km/h 96 % 0.09 in /  2.3 mm
05:00 57 °F /  13.9 °C 55.9 °F /  13.3 °C 29.9 in /  1011.7 hPa SW 2 mph /  3.2 km/h 2 mph /  3.2 km/h 96 % 0.08 in /  2.0 mm
05:10 57 °F /  13.9 °C 55.9 °F /  13.3 °C 29.9 in /  1011.7 hPa Calm   2 mph /  3.2 km/h 96 % 0.08 in /  2.0 mm
10:12 57.2 °F /  14.0 °C 56.1 °F /  13.4 °C 29.9 in /  1011.7 hPa Calm     96 % 0.46 in /  11.7 mm
10:13 57.2 °F /  14.0 °C 56.1 °F /  13.4 °C 29.9 in /  1011.7 hPa East 3.5 mph /  5.6 km/h   96 % 0.46 in /  11.7 mm
10:18 57 °F /  13.9 °C 55.9 °F /  13.3 °C 29.9 in /  1011.7 hPa East 4.6 mph /  7.4 km/h 4.6 mph /  7.4 km/h 96 % 0.46 in /  11.7 mm
10:23 57 °F /  13.9 °C 55.9 °F /  13.3 °C 29.9 in /  1011.7 hPa East 4.6 mph /  7.4 km/h   96 % 0.46 in /  11.7 mm
10:28 57.2 °F /  14.0 °C 56.1 °F /  13.4 °C 29.9 in /  1011.7 hPa East 1.2 mph /  1.9 km/h 1.2 mph /  1.9 km/h 96 % 0.42 in /  10.7 mm
10:33 57.2 °F /  14.0 °C 56.1 °F /  13.4 °C 29.9 in /  1011.7 hPa ESE 2.3 mph /  3.7 km/h 2.3 mph /  3.7 km/h 96 % 0.38 in /  9.7 mm
10:38 57 °F /  13.9 °C 55.9 °F /  13.3 °C 29.9 in /  1011.7 hPa East 2 mph /  3.2 km/h 2 mph /  3.2 km/h 96 % 0.36 in /  9.1 mm
10:43 57.2 °F /  14.0 °C 56.1 °F /  13.4 °C 29.9 in /  1011.7 hPa NNE 3.1 mph /  5.0 km/h 3.1 mph /  5.0 km/h 96 % 0.27 in /  6.9 mm
10:48 57.2 °F /  14.0 °C 56.1 °F /  13.4 °C 29.9 in /  1011.7 hPa NNE 3.5 mph /  5.6 km/h 3.5 mph /  5.6 km/h 96 % 0.23 in /  5.8 mm
10:53 57.4 °F /  14.1 °C 56.1 °F /  13.4 °C 29.9 in /  1011.7 hPa NNE 3.5 mph /  5.6 km/h 3.5 mph /  5.6 km/h 96 % 0.19 in /  4.8 mm
10:58 57.2 °F /  14.0 °C 56.1 °F /  13.4 °C 29.9 in /  1011.7 hPa NNE 4.7 mph /  7.6 km/h 4.7 mph /  7.6 km/h 96 % 0.13 in /  3.3 mm
11:03 57.4 °F /  14.1 °C 56.1 °F /  13.4 °C 29.9 in /  1011.7 hPa NNE 3.6 mph /  5.8 km/h 3.6 mph /  5.8 km/h 96 % 0.05 in /  1.3 mm
11:08 57.4 °F /  14.1 °C 56.1 °F /  13.4 °C 29.9 in /  1011.7 hPa NNE 2.6 mph /  4.2 km/h 2.6 mph /  4.2 km/h 96 % 0.05 in /  1.3 mm
11:13 57.4 °F /  14.1 °C 56.1 °F /  13.4 °C 29.9 in /  1011.7 hPa NNE 3.5 mph /  5.6 km/h 3.5 mph /  5.6 km/h 96 % 0.05 in /  1.3 mm
11:18 57.4 °F /  14.1 °C 56.1 °F /  13.4 °C 29.9 in /  1011.7 hPa NE 4.3 mph /  6.9 km/h 4.3 mph /  6.9 km/h 96 % 0.09 in /  2.3 mm
11:20 57.6 °F /  14.2 °C 56.5 °F /  13.6 °C 29.9 in /  1011.7 hPa ENE 4.6 mph /  7.4 km/h 4.6 mph /  7.4 km/h 96 % 0.09 in /  2.3 mm
11:25 57.6 °F /  14.2 °C 56.5 °F /  13.6 °C 29.9 in /  1011.7 hPa NE 2.4 mph /  3.9 km/h 2.4 mph /  3.9 km/h 96 % 0.09 in /  2.3 mm
11:30 57.6 °F /  14.2 °C 56.5 °F /  13.6 °C 29.9 in /  1011.7 hPa Calm     96 % 0.09 in /  2.3 mm
11:35 57.7 °F /  14.3 °C 56.7 °F /  13.7 °C 29.9 in /  1011.7 hPa NNE 2.6 mph /  4.2 km/h 2.6 mph /  4.2 km/h 96 % 0.09 in /  2.3 mm
11:40 57.7 °F /  14.3 °C 56.7 °F /  13.7 °C 29.9 in /  1011.7 hPa ENE 3.6 mph /  5.8 km/h 3.6 mph /  5.8 km/h 96 % 0.12 in /  3.0 mm
11:45 58.1 °F /  14.5 °C 57 °F /  13.9 °C 29.9 in /  1011.7 hPa NE 2.4 mph /  3.9 km/h 2.4 mph /  3.9 km/h 96 % 0.12 in /  3.0 mm
11:50 58.3 °F /  14.6 °C 57 °F /  13.9 °C 29.9 in /  1011.7 hPa NE 2.6 mph /  4.2 km/h 2.9 mph /  4.7 km/h 96 % 0.08 in /  2.0 mm
11:55 58.3 °F /  14.6 °C 57 °F /  13.9 °C 29.9 in /  1011.7 hPa NNE 3.5 mph /  5.6 km/h 3.5 mph /  5.6 km/h 96 % 0.08 in /  2.0 mm
12:00 58.5 °F /  14.7 °C 57.4 °F /  14.1 °C 29.9 in /  1011.7 hPa NNE 3.5 mph /  5.6 km/h 3.5 mph /  5.6 km/h 96 % 0.08 in /  2.0 mm
12:05 58.5 °F /  14.7 °C 57.4 °F /  14.1 °C 29.9 in /  1011.7 hPa NNE 4.3 mph /  6.9 km/h 4.3 mph /  6.9 km/h 96 % 0.08 in /  2.0 mm
12:10 58.3 °F /  14.6 °C 57 °F /  13.9 °C 29.9 in /  1011.7 hPa North 5.8 mph /  9.3 km/h 5.8 mph /  9.3 km/h 96 % 0.08 in /  2.0 mm
12:15 58.3 °F /  14.6 °C 57 °F /  13.9 °C 29.8 in /  1010.7 hPa NE 8.1 mph /  13.0 km/h 8.1 mph /  13.0 km/h 96 % 0.08 in /  2.0 mm
12:20 57.9 °F /  14.4 °C 56.8 °F /  13.8 °C 29.8 in /  1010.7 hPa ENE 5.8 mph /  9.3 km/h 5.8 mph /  9.3 km/h 96 % 0.04 in /  1.0 mm
12:25 57.7 °F /  14.3 °C 56.7 °F /  13.7 °C 29.8 in /  1010.7 hPa NNE 2.3 mph /  3.7 km/h 2.9 mph /  4.7 km/h 96 % 0.04 in /  1.0 mm
12:30 57.6 °F /  14.2 °C 56.1 °F /  13.4 °C 29.8 in /  1010.7 hPa ENE 3.5 mph /  5.6 km/h 3.5 mph /  5.6 km/h 95 % 0.04 in /  1.0 mm
12:35 57.6 °F /  14.2 °C 56.1 °F /  13.4 °C 29.8 in /  1010.7 hPa North 5.8 mph /  9.3 km/h 5.8 mph /  9.3 km/h 95 % 0.04 in /  1.0 mm
12:40 57.4 °F /  14.1 °C 55.9 °F /  13.3 °C 29.8 in /  1010.7 hPa NE 5.8 mph /  9.3 km/h 5.8 mph /  9.3 km/h 95 % 0 in /  0.0 mm
12:45 57.4 °F /  14.1 °C 55.9 °F /  13.3 °C 29.8 in /  1010.7 hPa NNE 5.8 mph /  9.3 km/h 5.8 mph /  9.3 km/h 95 % 0 in /  0.0 mm
12:50 57.6 °F /  14.2 °C 56.1 °F /  13.4 °C 29.8 in /  1010.7 hPa NNE 3.5 mph /  5.6 km/h 3.5 mph /  5.6 km/h 95 % 0 in /  0.0 mm
12:55 57.6 °F /  14.2 °C 56.1 °F /  13.4 °C 29.8 in /  1010.7 hPa NNE 3.6 mph /  5.8 km/h 3.6 mph /  5.8 km/h 95 % 0 in /  0.0 mm
13:00 57.6 °F /  14.2 °C 56.1 °F /  13.4 °C 29.8 in /  1010.0 hPa NNE 3.5 mph /  5.6 km/h 3.5 mph /  5.6 km/h 95 % 0 in /  0.0 mm
13:05 57.6 °F /  14.2 °C 56.1 °F /  13.4 °C 29.8 in /  1010.0 hPa NNE 5.8 mph /  9.3 km/h 5.8 mph /  9.3 km/h 95 % 0 in /  0.0 mm
13:10 57.4 °F /  14.1 °C 55.9 °F /  13.3 °C 29.8 in /  1010.0 hPa NNE 6.9 mph /  11.1 km/h 6.9 mph /  11.1 km/h 95 % 0 in /  0.0 mm
13:15 57.6 °F /  14.2 °C 56.1 °F /  13.4 °C 29.8 in /  1010.0 hPa NNE 3.5 mph /  5.6 km/h 3.5 mph /  5.6 km/h 95 % 0.04 in /  1.0 mm
13:20 57.6 °F /  14.2 °C 56.1 °F /  13.4 °C 29.8 in /  1010.0 hPa NNE 5.8 mph /  9.3 km/h 5.8 mph /  9.3 km/h 95 % 0.04 in /  1.0 mm
13:25 57.7 °F /  14.3 °C 56.3 °F /  13.5 °C 29.8 in /  1010.0 hPa NE 4.6 mph /  7.4 km/h 4.6 mph /  7.4 km/h 95 % 0.04 in /  1.0 mm
13:30 57.6 °F /  14.2 °C 56.1 °F /  13.4 °C 29.8 in /  1009.0 hPa NE 2.4 mph /  3.9 km/h 2.6 mph /  4.2 km/h 95 % 0.04 in /  1.0 mm
13:35 57.6 °F /  14.2 °C 56.1 °F /  13.4 °C 29.8 in /  1009.0 hPa NE 3.8 mph /  6.1 km/h 3.8 mph /  6.1 km/h 95 % 0.04 in /  1.0 mm
13:40 57.4 °F /  14.1 °C 55.9 °F /  13.3 °C 29.8 in /  1009.0 hPa ENE 4.6 mph /  7.4 km/h 4.6 mph /  7.4 km/h 95 % 0.04 in /  1.0 mm
13:45 57.4 °F /  14.1 °C 55.9 °F /  13.3 °C 29.8 in /  1010.0 hPa ENE 3.5 mph /  5.6 km/h 3.5 mph /  5.6 km/h 95 % 0.04 in /  1.0 mm
13:50 57.4 °F /  14.1 °C 55.9 °F /  13.3 °C 29.8 in /  1010.0 hPa NE 2.3 mph /  3.7 km/h 2.3 mph /  3.7 km/h 95 % 0.04 in /  1.0 mm
13:55 57.4 °F /  14.1 °C 55.9 °F /  13.3 °C 29.8 in /  1010.0 hPa NE 7.6 mph /  12.2 km/h 7.6 mph /  12.2 km/h 95 % 0.04 in /  1.0 mm
14:00 57.6 °F /  14.2 °C 56.1 °F /  13.4 °C 29.8 in /  1010.0 hPa North 3.8 mph /  6.1 km/h 3.8 mph /  6.1 km/h 95 % 0.04 in /  1.0 mm
14:05 57.6 °F /  14.2 °C 56.1 °F /  13.4 °C 29.8 in /  1010.0 hPa NE 2.4 mph /  3.9 km/h   95 % 0.04 in /  1.0 mm
14:10 57.7 °F /  14.3 °C 56.7 °F /  13.7 °C 29.8 in /  1010.0 hPa NE 2.3 mph /  3.7 km/h 2.3 mph /  3.7 km/h 96 % 0.04 in /  1.0 mm
14:15 57.9 °F /  14.4 °C 56.8 °F /  13.8 °C 29.8 in /  1009.0 hPa North 2.3 mph /  3.7 km/h   96 % 0 in /  0.0 mm
14:20 57.9 °F /  14.4 °C 56.8 °F /  13.8 °C 29.8 in /  1009.0 hPa NNW 2.3 mph /  3.7 km/h 2.3 mph /  3.7 km/h 96 % 0 in /  0.0 mm
14:25 58.1 °F /  14.5 °C 57 °F /  13.9 °C 29.8 in /  1009.0 hPa ENE 2.3 mph /  3.7 km/h 2.3 mph /  3.7 km/h 96 % 0.04 in /  1.0 mm
14:30 58.3 °F /  14.6 °C 57 °F /  13.9 °C 29.8 in /  1009.0 hPa ENE 1.2 mph /  1.9 km/h   96 % 0.04 in /  1.0 mm
14:35 58.3 °F /  14.6 °C 57 °F /  13.9 °C 29.8 in /  1009.0 hPa WNW 2.3 mph /  3.7 km/h 2.3 mph /  3.7 km/h 96 % 0.04 in /  1.0 mm
14:40 58.5 °F /  14.7 °C 57.4 °F /  14.1 °C 29.8 in /  1009.0 hPa East 3.5 mph /  5.6 km/h 3.5 mph /  5.6 km/h 96 % 0.04 in /  1.0 mm
14:45 58.6 °F /  14.8 °C 57.6 °F /  14.2 °C 29.8 in /  1009.0 hPa Calm     96 % 0.04 in /  1.0 mm
14:50 58.8 °F /  14.9 °C 57.7 °F /  14.3 °C 29.8 in /  1009.0 hPa NNW 1.6 mph /  2.6 km/h   96 % 0.04 in /  1.0 mm
14:55 59 °F /  15.0 °C 57.9 °F /  14.4 °C 29.8 in /  1009.0 hPa Calm     96 % 0.04 in /  1.0 mm
15:00 59.2 °F /  15.1 °C 57.9 °F /  14.4 °C 29.8 in /  1008.0 hPa Calm     96 % 0.04 in /  1.0 mm
15:05 59.7 °F /  15.4 °C 58.8 °F /  14.9 °C 29.8 in /  1008.0 hPa Calm     97 % 0.04 in /  1.0 mm
15:10 60.1 °F /  15.6 °C 59.2 °F /  15.1 °C 29.8 in /  1008.0 hPa Calm     97 % 0.04 in /  1.0 mm
15:15 60.3 °F /  15.7 °C 59.4 °F /  15.2 °C 29.8 in /  1009.0 hPa NNE 2.6 mph /  4.2 km/h   97 % 0.04 in /  1.0 mm
15:20 60.3 °F /  15.7 °C 59.4 °F /  15.2 °C 29.8 in /  1009.0 hPa NNE 2.3 mph /  3.7 km/h 2.3 mph /  3.7 km/h 97 % 0.09 in /  2.3 mm
15:25 60.1 °F /  15.6 °C 58.8 °F /  14.9 °C 29.8 in /  1009.0 hPa NE 4.6 mph /  7.4 km/h 4.6 mph /  7.4 km/h 96 % 0.05 in /  1.3 mm
15:30 59.7 °F /  15.4 °C 58.6 °F /  14.8 °C 29.8 in /  1008.0 hPa NW 2.3 mph /  3.7 km/h   96 % 0.05 in /  1.3 mm
15:35 59.7 °F /  15.4 °C 58.6 °F /  14.8 °C 29.8 in /  1008.0 hPa Calm     96 % 0.05 in /  1.3 mm
15:40 59.5 °F /  15.3 °C 58.5 °F /  14.7 °C 29.8 in /  1008.0 hPa Calm     96 % 0.05 in /  1.3 mm
15:45 59.9 °F /  15.5 °C 58.8 °F /  14.9 °C 29.7 in /  1007.0 hPa Calm     96 % 0.05 in /  1.3 mm
15:50 60.3 °F /  15.7 °C 59.2 °F /  15.1 °C 29.7 in /  1007.0 hPa Calm     96 % 0.05 in /  1.3 mm
15:51 60.3 °F /  15.7 °C 59.2 °F /  15.1 °C 29.7 in /  1007.0 hPa Calm     96 % 0.05 in /  1.3 mm
15:56 60.4 °F /  15.8 °C 59.4 °F /  15.2 °C 29.8 in /  1008.0 hPa Calm     96 % 0.09 in /  2.3 mm
16:01 60.6 °F /  15.9 °C 59.5 °F /  15.3 °C 29.8 in /  1008.0 hPa WNW 1.2 mph /  1.9 km/h 1.2 mph /  1.9 km/h 96 % 0.09 in /  2.3 mm
16:06 60.6 °F /  15.9 °C 59.5 °F /  15.3 °C 29.8 in /  1008.0 hPa SW 1.4 mph /  2.3 km/h 1.4 mph /  2.3 km/h 96 % 0.09 in /  2.3 mm
16:11 60.6 °F /  15.9 °C 59.5 °F /  15.3 °C 29.8 in /  1008.0 hPa ESE 1.6 mph /  2.6 km/h   96 % 0.13 in /  3.3 mm
16:16 60.3 °F /  15.7 °C 59.2 °F /  15.1 °C 29.8 in /  1008.0 hPa ESE 1.2 mph /  1.9 km/h 1.2 mph /  1.9 km/h 96 % 0.13 in /  3.3 mm
16:21 60.4 °F /  15.8 °C 59.4 °F /  15.2 °C 29.8 in /  1008.0 hPa SW 2.3 mph /  3.7 km/h 2.3 mph /  3.7 km/h 96 % 0.08 in /  2.0 mm
16:26 60.3 °F /  15.7 °C 59.2 °F /  15.1 °C 29.8 in /  1008.0 hPa Calm     96 % 0.08 in /  2.0 mm
16:31 60.1 °F /  15.6 °C 58.8 °F /  14.9 °C 29.8 in /  1008.0 hPa ESE 2.3 mph /  3.7 km/h 2.3 mph /  3.7 km/h 96 % 0.12 in /  3.0 mm
16:36 60.1 °F /  15.6 °C 58.8 °F /  14.9 °C 29.8 in /  1008.0 hPa Calm     96 % 0.12 in /  3.0 mm
16:41 60.1 °F /  15.6 °C 58.8 °F /  14.9 °C 29.8 in /  1008.0 hPa Calm     96 % 0.12 in /  3.0 mm
16:46 59.9 °F /  15.5 °C 58.8 °F /  14.9 °C 29.8 in /  1008.0 hPa NNE 1.4 mph /  2.3 km/h   96 % 0.12 in /  3.0 mm
16:51 59.7 °F /  15.4 °C 58.6 °F /  14.8 °C 29.8 in /  1008.0 hPa Calm     96 % 0.16 in /  4.1 mm
16:56 59.5 °F /  15.3 °C 58.5 °F /  14.7 °C 29.8 in /  1008.0 hPa West 3.5 mph /  5.6 km/h 3.5 mph /  5.6 km/h 96 % 0.17 in /  4.3 mm
17:01 59.5 °F /  15.3 °C 58.5 °F /  14.7 °C 29.8 in /  1008.0 hPa NW 1.4 mph /  2.3 km/h   96 % 0.2 in /  5.1 mm
17:06 59.5 °F /  15.3 °C 58.5 °F /  14.7 °C 29.8 in /  1008.0 hPa NNE 2.3 mph /  3.7 km/h 2.3 mph /  3.7 km/h 96 % 0.2 in /  5.1 mm
17:11 59.5 °F /  15.3 °C 58.5 °F /  14.7 °C 29.7 in /  1007.0 hPa NNW 3.5 mph /  5.6 km/h 3.5 mph /  5.6 km/h 96 % 0.16 in /  4.1 mm
17:16 59.5 °F /  15.3 °C 58.5 °F /  14.7 °C 29.7 in /  1007.0 hPa West 1.2 mph /  1.9 km/h   96 % 0.16 in /  4.1 mm
17:21 59.4 °F /  15.2 °C 58.3 °F /  14.6 °C 29.7 in /  1007.0 hPa WNW 2.3 mph /  3.7 km/h 2.3 mph /  3.7 km/h 96 % 0.21 in /  5.3 mm
17:26 59.5 °F /  15.3 °C 58.5 °F /  14.7 °C 29.7 in /  1007.0 hPa NE 2.3 mph /  3.7 km/h 2.3 mph /  3.7 km/h 96 % 0.25 in /  6.3 mm
17:31 59.5 °F /  15.3 °C 58.5 °F /  14.7 °C 29.7 in /  1007.0 hPa ESE 1.6 mph /  2.6 km/h 1.6 mph /  2.6 km/h 96 % 0.21 in /  5.3 mm
17:36 59.5 °F /  15.3 °C 58.5 °F /  14.7 °C 29.7 in /  1007.0 hPa NNW 2.3 mph /  3.7 km/h 2.3 mph /  3.7 km/h 96 % 0.25 in /  6.3 mm
17:41 59.5 °F /  15.3 °C 58.5 °F /  14.7 °C 29.7 in /  1007.0 hPa Calm     96 % 0.29 in /  7.4 mm
17:46 59.5 °F /  15.3 °C 58.5 °F /  14.7 °C 29.7 in /  1007.0 hPa ENE 4.6 mph /  7.4 km/h 4.6 mph /  7.4 km/h 96 % 0.29 in /  7.4 mm
17:51 59.5 °F /  15.3 °C 58.5 °F /  14.7 °C 29.7 in /  1007.0 hPa ENE 5.8 mph /  9.3 km/h 5.8 mph /  9.3 km/h 96 % 0.33 in /  8.4 mm
17:56 59.5 °F /  15.3 °C 58.5 °F /  14.7 °C 29.7 in /  1007.0 hPa NNE 5.8 mph /  9.3 km/h 5.8 mph /  9.3 km/h 96 % 0.33 in /  8.4 mm
18:01 59.5 °F /  15.3 °C 58.5 °F /  14.7 °C 29.7 in /  1007.0 hPa NNE 5.8 mph /  9.3 km/h 5.8 mph /  9.3 km/h 96 % 0.3 in /  7.6 mm
18:06 59.5 °F /  15.3 °C 58.5 °F /  14.7 °C 29.7 in /  1007.0 hPa NNE 4.7 mph /  7.6 km/h 4.7 mph /  7.6 km/h 96 % 0.34 in /  8.6 mm
18:11 59.4 °F /  15.2 °C 58.3 °F /  14.6 °C 29.7 in /  1007.0 hPa NE 8.1 mph /  13.0 km/h 8.1 mph /  13.0 km/h 96 % 0.34 in /  8.6 mm
18:16 59.4 °F /  15.2 °C 58.3 °F /  14.6 °C 29.7 in /  1007.0 hPa NNE 3.5 mph /  5.6 km/h 3.5 mph /  5.6 km/h 96 % 0.34 in /  8.6 mm
18:21 59.2 °F /  15.1 °C 57.9 °F /  14.4 °C 29.7 in /  1007.0 hPa NNE 10.4 mph /  16.7 km/h 10.4 mph /  16.7 km/h 96 % 0.29 in /  7.4 mm
18:26 59.2 °F /  15.1 °C 57.9 °F /  14.4 °C 29.7 in /  1007.0 hPa ENE 6 mph /  9.7 km/h 6 mph /  9.7 km/h 96 % 0.25 in /  6.3 mm
18:31 59 °F /  15.0 °C 57.9 °F /  14.4 °C 29.7 in /  1007.0 hPa NNW 4.9 mph /  7.9 km/h 4.9 mph /  7.9 km/h 96 % 0.25 in /  6.3 mm
18:36 59 °F /  15.0 °C 57.9 °F /  14.4 °C 29.7 in /  1007.0 hPa NNE 6.9 mph /  11.1 km/h 6.9 mph /  11.1 km/h 96 % 0.21 in /  5.3 mm
18:41 59 °F /  15.0 °C 57.9 °F /  14.4 °C 29.7 in /  1007.0 hPa North 7.8 mph /  12.6 km/h 7.8 mph /  12.6 km/h 96 % 0.21 in /  5.3 mm
18:46 59 °F /  15.0 °C 57.9 °F /  14.4 °C 29.7 in /  1007.0 hPa NNE 6 mph /  9.7 km/h 6 mph /  9.7 km/h 96 % 0.21 in /  5.3 mm
18:51 59 °F /  15.0 °C 57.9 °F /  14.4 °C 29.7 in /  1007.0 hPa NE 5.8 mph /  9.3 km/h 5.8 mph /  9.3 km/h 96 % 0.13 in /  3.3 mm
18:56 59 °F /  15.0 °C 57.9 °F /  14.4 °C 29.7 in /  1007.0 hPa East 5.8 mph /  9.3 km/h 5.8 mph /  9.3 km/h 96 % 0.08 in /  2.0 mm
19:01 59 °F /  15.0 °C 57.9 °F /  14.4 °C 29.7 in /  1007.0 hPa NNE 6.9 mph /  11.1 km/h 6.9 mph /  11.1 km/h 96 % 0.08 in /  2.0 mm
19:06 59 °F /  15.0 °C 57.9 °F /  14.4 °C 29.7 in /  1007.0 hPa NNE 6.9 mph /  11.1 km/h 6.9 mph /  11.1 km/h 96 % 0.04 in /  1.0 mm
19:11 59 °F /  15.0 °C 57.9 °F /  14.4 °C 29.7 in /  1007.0 hPa NE 5.8 mph /  9.3 km/h 5.8 mph /  9.3 km/h 96 % 0.04 in /  1.0 mm
19:16 59.2 °F /  15.1 °C 57.9 °F /  14.4 °C 29.7 in /  1007.0 hPa NE 9.2 mph /  14.8 km/h 9.2 mph /  14.8 km/h 96 % 0.04 in /  1.0 mm
19:20 59.7 °F /  15.4 °C 58.3 °F /  14.6 °C 29.9 in /  1011.7 hPa Calm     95 % 0 in /  0.0 mm
19:21 59.2 °F /  15.1 °C 57.9 °F /  14.4 °C 29.7 in /  1007.0 hPa NNE 13.8 mph /  22.2 km/h 13.8 mph /  22.2 km/h 96 % 0.04 in /  1.0 mm
19:26 59.2 °F /  15.1 °C 57.9 °F /  14.4 °C 29.7 in /  1007.0 hPa NNE 10.4 mph /  16.7 km/h 10.4 mph /  16.7 km/h 96 % 0.04 in /  1.0 mm
19:30 59.7 °F /  15.4 °C 58.6 °F /  14.8 °C 29.9 in /  1011.7 hPa Calm     96 % 0 in /  0.0 mm
19:31 59.2 °F /  15.1 °C 57.9 °F /  14.4 °C 29.7 in /  1007.0 hPa NNE 9.2 mph /  14.8 km/h 9.2 mph /  14.8 km/h 96 % 0.04 in /  1.0 mm
19:36 59.4 °F /  15.2 °C 58.3 °F /  14.6 °C 29.7 in /  1007.0 hPa NNW 6.9 mph /  11.1 km/h 6.9 mph /  11.1 km/h 96 % 0.04 in /  1.0 mm
19:40 59.7 °F /  15.4 °C 58.6 °F /  14.8 °C 29.9 in /  1011.7 hPa Calm     96 % 0 in /  0.0 mm
19:41 59.4 °F /  15.2 °C 58.3 °F /  14.6 °C 29.8 in /  1008.0 hPa NNE 10.7 mph /  17.2 km/h 10.7 mph /  17.2 km/h 96 % 0 in /  0.0 mm
19:46 59.5 °F /  15.3 °C 58.5 °F /  14.7 °C 29.8 in /  1008.0 hPa East 10.4 mph /  16.7 km/h 10.4 mph /  16.7 km/h 96 % 0 in /  0.0 mm
19:50 59.7 °F /  15.4 °C 58.3 °F /  14.6 °C 29.9 in /  1011.7 hPa Calm     95 % 0 in /  0.0 mm
19:51 59.5 °F /  15.3 °C 58.5 °F /  14.7 °C 29.8 in /  1008.0 hPa NNW 6.9 mph /  11.1 km/h 6.9 mph /  11.1 km/h 96 % 0 in /  0.0 mm
19:56 59.5 °F /  15.3 °C 58.5 °F /  14.7 °C 29.7 in /  1007.0 hPa ENE 6.9 mph /  11.1 km/h 6.9 mph /  11.1 km/h 96 % 0 in /  0.0 mm
20:00 59.7 °F /  15.4 °C 58.3 °F /  14.6 °C 29.9 in /  1011.7 hPa Calm     95 % 0 in /  0.0 mm
20:01 59.5 °F /  15.3 °C 58.5 °F /  14.7 °C 29.7 in /  1007.0 hPa NE 10.4 mph /  16.7 km/h 10.4 mph /  16.7 km/h 96 % 0 in /  0.0 mm
20:06 59.9 °F /  15.5 °C 58.8 °F /  14.9 °C 29.7 in /  1007.0 hPa NNE 12.7 mph /  20.4 km/h 12.7 mph /  20.4 km/h 96 % 0 in /  0.0 mm
20:10 59.5 °F /  15.3 °C 58.1 °F /  14.5 °C 29.9 in /  1011.7 hPa Calm     95 % 0 in /  0.0 mm
20:11 60.3 °F /  15.7 °C 58.8 °F /  14.9 °C 29.8 in /  1008.0 hPa NNE 8.1 mph /  13.0 km/h 8.1 mph /  13.0 km/h 95 % 0 in /  0.0 mm
20:16 60.3 °F /  15.7 °C 58.8 °F /  14.9 °C 29.8 in /  1008.0 hPa East 8.1 mph /  13.0 km/h 8.1 mph /  13.0 km/h 95 % 0 in /  0.0 mm
20:20 59.7 °F /  15.4 °C 58.3 °F /  14.6 °C 29.9 in /  1011.7 hPa Calm     95 % 0 in /  0.0 mm
20:21 60.4 °F /  15.8 °C 59 °F /  15.0 °C 29.8 in /  1008.0 hPa NNW 7.1 mph /  11.4 km/h 7.1 mph /  11.4 km/h 95 % 0.04 in /  1.0 mm
20:26 60.4 °F /  15.8 °C 59 °F /  15.0 °C 29.8 in /  1008.0 hPa NNE 11.5 mph /  18.5 km/h 11.5 mph /  18.5 km/h 95 % 0.04 in /  1.0 mm
20:30 59.5 °F /  15.3 °C 58.1 °F /  14.5 °C 29.9 in /  1012.8 hPa Calm     95 % 0 in /  0.0 mm
20:31 60.4 °F /  15.8 °C 59 °F /  15.0 °C 29.8 in /  1008.0 hPa NNE 5.8 mph /  9.3 km/h 5.8 mph /  9.3 km/h 95 % 0.04 in /  1.0 mm
20:36 60.3 °F /  15.7 °C 58.8 °F /  14.9 °C 29.8 in /  1008.0 hPa ENE 8.7 mph /  14.0 km/h 8.7 mph /  14.0 km/h 95 % 0.04 in /  1.0 mm
20:40 59.4 °F /  15.2 °C 57.9 °F /  14.4 °C 29.9 in /  1012.8 hPa Calm     95 % 0 in /  0.0 mm
20:41 60.4 °F /  15.8 °C 59 °F /  15.0 °C 29.8 in /  1009.0 hPa ENE 6.9 mph /  11.1 km/h 6.9 mph /  11.1 km/h 95 % 0.04 in /  1.0 mm
20:46 60.4 °F /  15.8 °C 59 °F /  15.0 °C 29.8 in /  1009.0 hPa ENE 9.2 mph /  14.8 km/h 9.2 mph /  14.8 km/h 95 % 0.04 in /  1.0 mm
20:50 59.4 °F /  15.2 °C 57.9 °F /  14.4 °C 29.9 in /  1012.8 hPa Calm     95 % 0 in /  0.0 mm
20:51 60.4 °F /  15.8 °C 59 °F /  15.0 °C 29.8 in /  1009.0 hPa ENE 5.9 mph /  9.5 km/h 5.9 mph /  9.5 km/h 95 % 0.04 in /  1.0 mm
20:56 60.4 °F /  15.8 °C 59 °F /  15.0 °C 29.8 in /  1010.0 hPa ENE 9.2 mph /  14.8 km/h 9.2 mph /  14.8 km/h 95 % 0.04 in /  1.0 mm
21:00 59.2 °F /  15.1 °C 57.7 °F /  14.3 °C 29.9 in /  1012.8 hPa Calm     95 % 0 in /  0.0 mm
21:01 60.4 °F /  15.8 °C 59 °F /  15.0 °C 29.8 in /  1010.0 hPa NE 7.8 mph /  12.6 km/h 7.8 mph /  12.6 km/h 95 % 0.04 in /  1.0 mm
21:06 60.6 °F /  15.9 °C 59.2 °F /  15.1 °C 29.8 in /  1010.0 hPa North 6.4 mph /  10.3 km/h 6.4 mph /  10.3 km/h 95 % 0.04 in /  1.0 mm
21:10 59.2 °F /  15.1 °C 57.9 °F /  14.4 °C 29.9 in /  1012.8 hPa Calm     96 % 0 in /  0.0 mm
21:11 60.6 °F /  15.9 °C 59.2 °F /  15.1 °C 29.8 in /  1010.0 hPa NNE 8.1 mph /  13.0 km/h 8.1 mph /  13.0 km/h 95 % 0.04 in /  1.0 mm
21:16 60.6 °F /  15.9 °C 59.2 °F /  15.1 °C 29.8 in /  1010.0 hPa NE 6.9 mph /  11.1 km/h 6.9 mph /  11.1 km/h 95 % 0.04 in /  1.0 mm
21:20 59.2 °F /  15.1 °C 57.9 °F /  14.4 °C 29.9 in /  1012.8 hPa Calm     96 % 0 in /  0.0 mm
21:21 60.6 °F /  15.9 °C 59.2 °F /  15.1 °C 29.8 in /  1010.0 hPa NNE 6 mph /  9.7 km/h 6 mph /  9.7 km/h 95 % 0 in /  0.0 mm
21:26 60.6 °F /  15.9 °C 59.2 °F /  15.1 °C 29.8 in /  1010.0 hPa NNE 8.1 mph /  13.0 km/h 8.1 mph /  13.0 km/h 95 % 0 in /  0.0 mm
21:30 59.2 °F /  15.1 °C 57.9 °F /  14.4 °C 29.9 in /  1013.8 hPa Calm     96 % 0 in /  0.0 mm
21:31 60.8 °F /  16.0 °C 59.4 °F /  15.2 °C 29.8 in /  1010.0 hPa NNE 6.9 mph /  11.1 km/h 6.9 mph /  11.1 km/h 95 % 0 in /  0.0 mm
21:36 60.8 °F /  16.0 °C 59.4 °F /  15.2 °C 29.8 in /  1010.0 hPa NE 8.5 mph /  13.7 km/h 8.5 mph /  13.7 km/h 95 % 0 in /  0.0 mm
21:40 59 °F /  15.0 °C 57.9 °F /  14.4 °C 29.9 in /  1013.8 hPa Calm     96 % 0 in /  0.0 mm
21:41 60.8 °F /  16.0 °C 59.4 °F /  15.2 °C 29.8 in /  1010.0 hPa NNE 5.8 mph /  9.3 km/h 5.8 mph /  9.3 km/h 95 % 0 in /  0.0 mm
21:46 60.8 °F /  16.0 °C 59.4 °F /  15.2 °C 29.8 in /  1010.0 hPa NNE 5.8 mph /  9.3 km/h 5.8 mph /  9.3 km/h 95 % 0 in /  0.0 mm
21:50 59 °F /  15.0 °C 57.9 °F /  14.4 °C 29.9 in /  1012.8 hPa Calm     96 % 0 in /  0.0 mm
21:51 60.8 °F /  16.0 °C 59.4 °F /  15.2 °C 29.8 in /  1010.0 hPa ENE 5.9 mph /  9.5 km/h 5.9 mph /  9.5 km/h 95 % 0 in /  0.0 mm
21:56 60.6 °F /  15.9 °C 59.2 °F /  15.1 °C 29.8 in /  1010.0 hPa NNE 5.8 mph /  9.3 km/h 5.8 mph /  9.3 km/h 95 % 0 in /  0.0 mm
22:00 58.8 °F /  14.9 °C 57.4 °F /  14.1 °C 29.9 in /  1012.8 hPa Calm     95 % 0 in /  0.0 mm
22:01 60.6 °F /  15.9 °C 59.2 °F /  15.1 °C 29.8 in /  1010.0 hPa NNE 7.4 mph /  11.9 km/h 7.4 mph /  11.9 km/h 95 % 0 in /  0.0 mm
22:06 60.4 °F /  15.8 °C 59 °F /  15.0 °C 29.8 in /  1010.0 hPa NE 4.6 mph /  7.4 km/h 4.6 mph /  7.4 km/h 95 % 0 in /  0.0 mm
22:10 58.6 °F /  14.8 °C 57.6 °F /  14.2 °C 29.9 in /  1012.8 hPa Calm     96 % 0 in /  0.0 mm
22:11 60.4 °F /  15.8 °C 59 °F /  15.0 °C 29.8 in /  1010.0 hPa NNE 4.6 mph /  7.4 km/h 4.6 mph /  7.4 km/h 95 % 0 in /  0.0 mm
22:12 60.4 °F /  15.8 °C 59 °F /  15.0 °C 29.8 in /  1010.0 hPa NE 2.6 mph /  4.2 km/h 2.6 mph /  4.2 km/h 95 % 0 in /  0.0 mm
22:17 60.4 °F /  15.8 °C 59 °F /  15.0 °C 29.8 in /  1010.0 hPa ENE 5.8 mph /  9.3 km/h 5.8 mph /  9.3 km/h 95 % 0 in /  0.0 mm
22:20 58.5 °F /  14.7 °C 57 °F /  13.9 °C 29.9 in /  1013.8 hPa NNE 1 mph /  1.6 km/h 2 mph /  3.2 km/h 95 % 0 in /  0.0 mm
22:22 60.3 °F /  15.7 °C 58.8 °F /  14.9 °C 29.8 in /  1010.0 hPa NNE 5.8 mph /  9.3 km/h 5.8 mph /  9.3 km/h 95 % 0 in /  0.0 mm
22:27 60.3 °F /  15.7 °C 58.8 °F /  14.9 °C 29.8 in /  1010.0 hPa North 5.8 mph /  9.3 km/h 5.8 mph /  9.3 km/h 95 % 0 in /  0.0 mm
22:30 58.6 °F /  14.8 °C 57.6 °F /  14.2 °C 29.9 in /  1013.8 hPa Calm     96 % 0 in /  0.0 mm
22:32 60.3 °F /  15.7 °C 58.8 °F /  14.9 °C 29.8 in /  1010.0 hPa NNE 5.8 mph /  9.3 km/h 5.8 mph /  9.3 km/h 95 % 0 in /  0.0 mm
22:37 60.3 °F /  15.7 °C 58.8 °F /  14.9 °C 29.8 in /  1010.0 hPa NNE 5.8 mph /  9.3 km/h 5.8 mph /  9.3 km/h 95 % 0 in /  0.0 mm
22:40 58.6 °F /  14.8 °C 57.6 °F /  14.2 °C 29.9 in /  1013.8 hPa Calm     96 % 0 in /  0.0 mm
22:42 60.4 °F /  15.8 °C 59 °F /  15.0 °C 29.8 in /  1010.7 hPa NNE 4.6 mph /  7.4 km/h 4.6 mph /  7.4 km/h 95 % 0 in /  0.0 mm
22:47 60.4 °F /  15.8 °C 59 °F /  15.0 °C 29.8 in /  1010.7 hPa ENE 6.2 mph /  10.0 km/h 6.2 mph /  10.0 km/h 95 % 0 in /  0.0 mm
22:50 58.6 °F /  14.8 °C 57.6 °F /  14.2 °C 29.9 in /  1013.8 hPa Calm     96 % 0 in /  0.0 mm
22:52 60.4 °F /  15.8 °C 59 °F /  15.0 °C 29.8 in /  1010.7 hPa NNE 5.8 mph /  9.3 km/h 5.8 mph /  9.3 km/h 95 % 0 in /  0.0 mm
22:57 60.4 °F /  15.8 °C 59 °F /  15.0 °C 29.8 in /  1010.7 hPa NNE 4.6 mph /  7.4 km/h 4.6 mph /  7.4 km/h 95 % 0 in /  0.0 mm
23:00 58.8 °F /  14.9 °C 57.7 °F /  14.3 °C 29.9 in /  1013.8 hPa Calm     96 % 0 in /  0.0 mm
23:02 60.3 °F /  15.7 °C 58.8 °F /  14.9 °C 29.8 in /  1010.7 hPa NE 3.5 mph /  5.6 km/h 3.5 mph /  5.6 km/h 95 % 0 in /  0.0 mm
23:07 60.1 °F /  15.6 °C 58.6 °F /  14.8 °C 29.8 in /  1010.7 hPa ENE 3.5 mph /  5.6 km/h 3.5 mph /  5.6 km/h 95 % 0 in /  0.0 mm
23:10 58.5 °F /  14.7 °C 57.4 °F /  14.1 °C 29.9 in /  1013.8 hPa Calm     96 % 0 in /  0.0 mm
23:12 60.1 °F /  15.6 °C 58.6 °F /  14.8 °C 29.9 in /  1011.7 hPa NNE 2.3 mph /  3.7 km/h 2.3 mph /  3.7 km/h 95 % 0 in /  0.0 mm
23:17 59.9 °F /  15.5 °C 58.5 °F /  14.7 °C 29.9 in /  1011.7 hPa NNE 1.2 mph /  1.9 km/h 1.2 mph /  1.9 km/h 95 % 0 in /  0.0 mm
23:20 58.3 °F /  14.6 °C 57 °F /  13.9 °C 29.9 in /  1013.8 hPa WNW 2 mph /  3.2 km/h 2 mph /  3.2 km/h 96 % 0 in /  0.0 mm
23:22 59.9 °F /  15.5 °C 58.5 °F /  14.7 °C 29.9 in /  1011.7 hPa NNE 3.8 mph /  6.1 km/h 3.8 mph /  6.1 km/h 95 % 0 in /  0.0 mm
23:27 59.9 °F /  15.5 °C 58.5 °F /  14.7 °C 29.8 in /  1010.7 hPa NNE 4.6 mph /  7.4 km/h 4.6 mph /  7.4 km/h 95 % 0 in /  0.0 mm
23:30 58.3 °F /  14.6 °C 57 °F /  13.9 °C 29.9 in /  1013.8 hPa Calm     96 % 0 in /  0.0 mm
23:32 59.7 °F /  15.4 °C 58.3 °F /  14.6 °C 29.8 in /  1010.7 hPa NE 3.5 mph /  5.6 km/h 3.5 mph /  5.6 km/h 95 % 0 in /  0.0 mm
23:37 59.7 °F /  15.4 °C 58.3 °F /  14.6 °C 29.8 in /  1010.7 hPa NNE 2.3 mph /  3.7 km/h 2.3 mph /  3.7 km/h 95 % 0 in /  0.0 mm
23:40 58.3 °F /  14.6 °C 57 °F /  13.9 °C 29.9 in /  1013.8 hPa Calm     96 % 0 in /  0.0 mm
23:42 59.7 °F /  15.4 °C 58.3 °F /  14.6 °C 29.8 in /  1010.7 hPa ENE 3.5 mph /  5.6 km/h   95 % 0 in /  0.0 mm
23:47 59.7 °F /  15.4 °C 58.3 °F /  14.6 °C 29.8 in /  1010.7 hPa NE 2.3 mph /  3.7 km/h 2.3 mph /  3.7 km/h 95 % 0 in /  0.0 mm
23:50 58.3 °F /  14.6 °C 57 °F /  13.9 °C 29.9 in /  1013.8 hPa Calm     96 % 0 in /  0.0 mm
23:52 59.7 °F /  15.4 °C 58.3 °F /  14.6 °C 29.8 in /  1010.7 hPa Calm     95 % 0 in /  0.0 mm
23:57 59.7 °F /  15.4 °C 58.3 °F /  14.6 °C 29.9 in /  1012.8 hPa Calm     95 % 0 in /  0.0 mm
Meteo Sesrovires
Elogis d' Weather Underground - 3.75 mb

Guio original per  Jim McMurry - jmcmurry@mwt.net Adaptat per a la plantilla per  Wim van der Kuil - Leuven-Template.eu

Trobareu la nostra informacio del temps tambe a:

Weather Underground

AWEKAS